Nearby METAR Reports

 

LIBV - Gioia Del Colle, Italy
Distance from station: ЮЮИ 15km
Актуализирано: 22/01/2018 14:55
Few Clouds
Few Clouds
 Вятър от ССЗ
Вятър: ССЗ 24 km/h
Температура: 7°C
Wind Chill: 3°C
Точка на оросяване: -3°C
Влажност: 49%
Барометър: 1013 hPa
Clouds: Few Clouds
Visibility: 10 km
Cloud details: Few Clouds 762 m
2018/01/22 13:55 LIBV 221355Z 34013KT 9999 FEW025 07/M03 Q1013 RMK SCT SCT200 VIS MIN 9999 WIND THR32 35016KT WIND THR14 34014KT BLU
LIBD - Bari/Palese Macc, Italy
Distance from station: ССЗ 26km
Актуализирано: 22/01/2018 14:50
Тихо и ясно
Тихо и ясно
 Вятър от СЗ
Вятър: СЗ 20 km/h
Температура: 10°C
Wind Chill: 7°C
Точка на оросяване: 0°C
Влажност: 50%
Барометър: 1015 hPa
Метео сводка: Тихо и ясно
Visibility: greater than 10 km
2018/01/22 13:50 LIBD 221350Z 32011KT CAVOK 10/00 Q1015
LIBH - Marina Di Ginosa, Italy
Distance from station: Ю 53km
Актуализирано: 22/01/2018 13:55
Тихо и ясно
Тихо и ясно
 Вятър от ССЗ
Вятър: ССЗ 24 km/h
Температура: 12°C
Точка на оросяване: -3°C
Влажност: 35%
Барометър: 1014 hPa
Метео сводка: Тихо и ясно
Visibility: greater than 10 km
2018/01/22 12:55 LIBH 221255Z 33013KT CAVOK 12/M03 Q1014 RMK FEW FEW200 QUK 3 QUL 1 NE VIS MAR 25 KM VIS MIN 9999
 
LIBG - Grottaglie(Civ/A, Italy
Distance from station: ЮИ 61km
Актуализирано: 22/01/2018 14:50
Тихо и ясно
Тихо и ясно
 Вятър от ССЗ
Вятър: ССЗ 30 km/h
Температура: 11°C
Точка на оросяване: -2°C
Влажност: 41%
Барометър: 1013 hPa
Метео сводка: Тихо и ясно
Visibility: greater than 10 km
2018/01/22 13:50 LIBG 221350Z 34016KT CAVOK 11/M02 Q1013
LIBR - Brindisi/Casale, Italy
Distance from station: ИЮИ 96km
Актуализирано: 22/01/2018 14:50
Тихо и ясно
Тихо и ясно
 Вятър от ССЗ
Вятър: ССЗ 26 km/h
Температура: 10°C
Wind Chill: 7°C
Точка на оросяване: -1°C
Влажност: 47%
Барометър: 1013 hPa
Метео сводка: Тихо и ясно
Visibility: greater than 10 km
2018/01/22 13:50 LIBR 221350Z 34014KT CAVOK 10/M01 Q1013
LIBA - Amendola (it-Afb, Italy
Distance from station: СЗ 118km
Актуализирано: 22/01/2018 14:55
Тихо и ясно
Тихо и ясно
 Вятър от ЗСЗ
Вятър: ЗСЗ 19 km/h
Температура: 10°C
Wind Chill: 7°C
Точка на оросяване: 2°C
Влажност: 58%
Барометър: 1014 hPa
Метео сводка: Тихо и ясно
Visibility: greater than 10 km
2018/01/22 13:55 LIBA 221355Z 29010KT CAVOK 10/02 Q1014 RMK BKN SCT150 BKN220 VIS MIN 9999 WIND THR11 28010KT WIND THR29 /////KT BLU
 
LIBF - Foggia/Gino Lisa, Italy
Distance from station: ЗСЗ 126km
Актуализирано: 22/01/2018 14:50
Тихо и ясно
Тихо и ясно
 Вятър от ЗСЗ
Вятър: ЗСЗ 9 km/h
Температура: 10°C
Wind Chill: 9°C
Точка на оросяване: 0°C
Влажност: 50%
Барометър: 1015 hPa
Метео сводка: Тихо и ясно
Visibility: greater than 10 km
2018/01/22 13:50 LIBF 221350Z 30005KT CAVOK 10/00 Q1015
LIBN - Lecce (it-Afb), Italy
Distance from station: ЮИ 132km
Актуализирано: 22/01/2018 14:55
Тихо и ясно
Тихо и ясно
 Вятър от ССЗ
Вятър: ССЗ 26 km/h
Температура: 10°C
Wind Chill: 7°C
Точка на оросяване: 1°C
Влажност: 54%
Барометър: 1012 hPa
Метео сводка: Тихо и ясно
Visibility: greater than 10 km
2018/01/22 13:55 LIBN 221355Z 34014KT CAVOK 10/01 Q1012 RMK FEW FEW200 VIS MIN 9999 WIND THR14 34016KT WIND THR32 34016KT BLU